createdAt,value
2023-01-12T00:02:14.897Z,100269.13
2023-01-12T00:04:42.762Z,100268.25
2023-01-12T00:07:13.565Z,100266.59
2023-01-12T00:09:41.543Z,100267.47
2023-01-12T00:12:11.751Z,100268.34
2023-01-12T00:14:39.873Z,100268.41
2023-01-12T00:17:09.211Z,100271.81
2023-01-12T00:19:38.903Z,100271.78
2023-01-12T00:22:06.941Z,100270.94
2023-01-12T00:25:01.028Z,100279.50
2023-01-12T00:27:28.961Z,100284.66
2023-01-12T00:29:56.707Z,100284.75
2023-01-12T00:32:24.643Z,100296.84
2023-01-12T00:34:52.330Z,100284.81
2023-01-12T00:37:20.229Z,100284.75
2023-01-12T00:40:01.398Z,100285.63
2023-01-12T00:42:48.853Z,100291.66
2023-01-12T00:45:22.385Z,100289.94
2023-01-12T00:47:50.877Z,100286.41
2023-01-12T00:50:19.674Z,100288.25
2023-01-12T00:52:47.916Z,100290.69
2023-01-12T00:55:15.594Z,100289.75
2023-01-12T00:57:43.652Z,100287.28
2023-01-12T01:00:11.790Z,100283.94
2023-01-12T01:02:39.953Z,100284.88
2023-01-12T01:05:08.288Z,100288.25
2023-01-12T01:07:36.151Z,100288.19
2023-01-12T01:10:03.958Z,100293.28
2023-01-12T01:12:32.895Z,100288.03
2023-01-12T01:15:00.545Z,100281.13
2023-01-12T01:17:28.907Z,100276.94
2023-01-12T01:19:56.595Z,100281.22
2023-01-12T01:22:24.543Z,100280.44
2023-01-12T01:24:52.179Z,100269.97
2023-01-12T01:27:20.190Z,100273.28
2023-01-12T01:29:47.963Z,100272.44
2023-01-12T01:32:15.833Z,100278.66
2023-01-12T01:34:44.011Z,100273.44
2023-01-12T01:37:13.068Z,100281.06
2023-01-12T01:39:40.758Z,100282.84
2023-01-12T01:42:27.911Z,100288.00
2023-01-12T01:44:59.497Z,100286.13
2023-01-12T01:47:40.881Z,100285.31
2023-01-12T01:50:19.922Z,100294.88
2023-01-12T01:52:53.926Z,100281.00
2023-01-12T01:55:26.372Z,100274.09
2023-01-12T01:58:16.975Z,100272.44
2023-01-12T02:00:45.014Z,100271.56
2023-01-12T02:03:15.926Z,100278.47
2023-01-12T02:05:47.164Z,100280.22
2023-01-12T02:08:46.715Z,100282.75
2023-01-12T02:11:34.450Z,100278.47
2023-01-12T02:14:21.195Z,100280.34
2023-01-12T02:17:19.711Z,100273.34
2023-01-12T02:20:08.303Z,100268.84
2023-01-12T02:23:04.398Z,100281.81
2023-01-12T02:26:05.694Z,100279.97
2023-01-12T02:29:00.618Z,100287.88
2023-01-12T02:31:47.293Z,100282.75
2023-01-12T02:34:41.662Z,100287.16
2023-01-12T02:37:37.259Z,100277.66
2023-01-12T02:40:21.717Z,100281.03
2023-01-12T02:42:54.960Z,100293.13
2023-01-12T02:45:30.995Z,100276.72
2023-01-12T02:48:03.934Z,100296.47
2023-01-12T02:50:40.153Z,100305.16
2023-01-12T02:53:17.458Z,100298.34
2023-01-12T02:55:46.946Z,100295.66
2023-01-12T02:58:18.701Z,100305.22
2023-01-12T03:00:50.347Z,100304.41
2023-01-12T03:03:19.440Z,100302.50
2023-01-12T03:05:47.635Z,100296.53
2023-01-12T03:08:23.672Z,100298.16
2023-01-12T03:10:59.260Z,100299.03
2023-01-12T03:13:29.964Z,100310.25
2023-01-12T03:16:00.264Z,100313.78
2023-01-12T03:18:34.378Z,100311.00
2023-01-12T03:21:09.128Z,100311.09
2023-01-12T03:23:47.683Z,100306.72
2023-01-12T03:26:19.387Z,100324.75
2023-01-12T03:28:53.465Z,100311.88
2023-01-12T03:31:22.040Z,100316.94
2023-01-12T03:33:51.136Z,100317.03
2023-01-12T03:36:42.411Z,100318.75
2023-01-12T03:39:54.010Z,100317.81
2023-01-12T03:43:12.707Z,100319.44
2023-01-12T03:45:45.358Z,100325.69
2023-01-12T03:48:16.207Z,100322.00
2023-01-12T03:50:52.955Z,100329.03
2023-01-12T03:53:23.410Z,100325.72
2023-01-12T03:55:56.341Z,100323.09
2023-01-12T03:58:25.423Z,100326.44
2023-01-12T04:00:53.578Z,100316.00
2023-01-12T04:03:21.411Z,100313.56
2023-01-12T04:05:49.413Z,100316.97
2023-01-12T04:08:17.580Z,100314.25
2023-01-12T04:10:45.507Z,100316.09
2023-01-12T04:13:13.683Z,100322.09
2023-01-12T04:15:44.589Z,100316.91
2023-01-12T04:18:13.408Z,100315.16
2023-01-12T04:20:41.901Z,100309.91
2023-01-12T04:23:09.552Z,100315.16
2023-01-12T04:25:37.490Z,100311.69
2023-01-12T04:28:05.719Z,100316.03
2023-01-12T04:30:34.862Z,100322.03
2023-01-12T04:33:09.242Z,100327.09
2023-01-12T04:35:37.155Z,100326.22
2023-01-12T04:38:09.403Z,100333.97
2023-01-12T04:40:37.394Z,100336.56
2023-01-12T04:43:07.986Z,100329.53
2023-01-12T04:45:42.114Z,100335.59
2023-01-12T04:48:12.545Z,100332.09
2023-01-12T04:50:41.551Z,100336.44
2023-01-12T04:53:11.618Z,100335.53
2023-01-12T04:55:41.628Z,100341.63
2023-01-12T04:58:09.932Z,100339.00
2023-01-12T05:00:37.888Z,100346.00
2023-01-12T05:03:05.632Z,100351.16
2023-01-12T05:05:34.078Z,100341.59
2023-01-12T05:08:21.814Z,100342.56
2023-01-12T05:10:51.271Z,100334.75
2023-01-12T05:13:19.313Z,100332.97
2023-01-12T05:15:47.309Z,100339.00
2023-01-12T05:18:15.847Z,100335.38
2023-01-12T05:20:43.866Z,100335.44
2023-01-12T05:23:11.623Z,100331.88
2023-01-12T05:25:39.592Z,100334.41
2023-01-12T05:28:07.298Z,100331.81
2023-01-12T05:30:35.315Z,100337.91
2023-01-12T05:33:03.016Z,100329.28
2023-01-12T05:35:30.899Z,100336.16
2023-01-12T05:37:58.574Z,100335.19
2023-01-12T05:40:26.630Z,100340.34
2023-01-12T05:43:12.938Z,100347.25
2023-01-12T05:45:41.185Z,100354.13
2023-01-12T05:48:09.666Z,100347.25
2023-01-12T05:50:37.694Z,100352.41
2023-01-12T05:53:09.564Z,100348.88
2023-01-12T05:55:38.400Z,100350.59
2023-01-12T05:58:06.214Z,100352.28
2023-01-12T06:00:34.132Z,100367.03
2023-01-12T06:03:03.268Z,100360.84
2023-01-12T06:05:31.233Z,100351.38
2023-01-12T06:08:00.692Z,100354.88
2023-01-12T06:10:29.120Z,100367.84
2023-01-12T06:13:15.414Z,100366.59
2023-01-12T06:15:43.295Z,100368.38
2023-01-12T06:18:11.396Z,100367.59
2023-01-12T06:20:39.519Z,100372.84
2023-01-12T06:23:09.437Z,100378.06
2023-01-12T06:25:37.394Z,100372.88
2023-01-12T06:28:06.542Z,100385.88
2023-01-12T06:30:34.418Z,100382.19
2023-01-12T06:33:03.182Z,100384.72
2023-01-12T06:35:31.154Z,100386.59
2023-01-12T06:37:58.859Z,100386.50
2023-01-12T06:40:26.889Z,100391.56
2023-01-12T06:42:54.583Z,100386.41
2023-01-12T06:45:22.504Z,100389.03
2023-01-12T06:47:52.198Z,100391.59
2023-01-12T06:50:20.403Z,100388.16
2023-01-12T06:52:48.071Z,100388.91
2023-01-12T06:55:16.114Z,100391.38
2023-01-12T06:57:43.894Z,100395.75
2023-01-12T07:00:13.321Z,100393.94
2023-01-12T07:02:41.086Z,100402.59
2023-01-12T07:05:09.467Z,100403.31
2023-01-12T07:07:40.701Z,100389.53
2023-01-12T07:10:10.051Z,100403.25
2023-01-12T07:12:37.878Z,100407.69
2023-01-12T07:15:06.303Z,100402.31
2023-01-12T07:17:34.112Z,100404.88
2023-01-12T07:20:02.051Z,100410.03
2023-01-12T07:22:30.420Z,100417.84
2023-01-12T07:24:58.443Z,100421.28
2023-01-12T07:27:26.073Z,100417.91
2023-01-12T07:29:54.105Z,100415.25
2023-01-12T07:32:24.941Z,100421.28
2023-01-12T07:34:53.007Z,100417.78
2023-01-12T07:37:20.693Z,100422.06
2023-01-12T07:39:48.652Z,100427.13
2023-01-12T07:42:25.529Z,100423.78
2023-01-12T07:44:53.551Z,100437.53
2023-01-12T07:47:21.719Z,100437.50
2023-01-12T07:49:50.238Z,100440.97
2023-01-12T07:52:17.903Z,100437.34
2023-01-12T07:54:45.883Z,100430.28
2023-01-12T07:57:13.604Z,100439.94
2023-01-12T07:59:41.599Z,100445.72
2023-01-12T08:02:16.547Z,100448.47
2023-01-12T08:04:45.804Z,100450.88
2023-01-12T08:07:14.933Z,100457.03
2023-01-12T08:09:42.950Z,100454.91
2023-01-12T08:12:10.661Z,100453.94
2023-01-12T08:14:40.477Z,100456.44
2023-01-12T08:17:19.026Z,100463.31
2023-01-12T08:19:56.959Z,100459.06
2023-01-12T08:22:31.690Z,100469.16
2023-01-12T08:25:07.368Z,100470.88
2023-01-12T08:27:39.045Z,100466.66
2023-01-12T08:30:08.761Z,100472.41
2023-01-12T08:32:37.842Z,100473.03
2023-01-12T08:35:06.325Z,100482.72
2023-01-12T08:37:35.684Z,100482.81
2023-01-12T08:40:05.760Z,100493.13
2023-01-12T08:42:33.458Z,100490.56
2023-01-12T08:45:01.514Z,100492.41
2023-01-12T08:47:30.584Z,100485.66
2023-01-12T08:50:00.365Z,100484.69
2023-01-12T08:52:29.622Z,100486.44
2023-01-12T08:54:57.687Z,100491.72
2023-01-12T08:57:25.382Z,100487.66
2023-01-12T08:59:53.396Z,100491.91
2023-01-12T09:02:21.315Z,100488.38
2023-01-12T09:04:49.607Z,100498.56
2023-01-12T09:07:17.435Z,100497.78
2023-01-12T09:09:45.381Z,100489.50
2023-01-12T09:12:13.071Z,100481.38
2023-01-12T09:14:41.043Z,100475.03
2023-01-12T09:17:08.831Z,100477.97
2023-01-12T09:19:36.823Z,100470.03
2023-01-12T09:22:04.459Z,100468.31
2023-01-12T09:24:32.386Z,100468.97
2023-01-12T09:27:00.190Z,100463.34
2023-01-12T09:29:28.152Z,100467.88
2023-01-12T09:31:55.897Z,100463.66
2023-01-12T09:34:23.965Z,100468.25
2023-01-12T09:36:52.533Z,100459.75
2023-01-12T09:39:27.749Z,100453.78
2023-01-12T09:42:15.217Z,100455.34
2023-01-12T09:45:05.012Z,100454.28
2023-01-12T09:47:56.326Z,100442.25
2023-01-12T09:50:29.629Z,100440.03
2023-01-12T09:53:03.022Z,100444.59
2023-01-12T09:55:47.168Z,100438.00
2023-01-12T09:58:28.182Z,100440.69
2023-01-12T10:00:58.506Z,100446.38
2023-01-12T10:03:38.431Z,100441.28
2023-01-12T10:06:09.368Z,100428.81
2023-01-12T10:09:00.679Z,100431.72
2023-01-12T10:12:06.343Z,100442.75
2023-01-12T10:14:34.482Z,100426.84
2023-01-12T10:17:11.593Z,100417.06
2023-01-12T10:20:04.442Z,100414.72
2023-01-12T10:22:54.716Z,100418.75
2023-01-12T10:25:22.518Z,100415.28
2023-01-12T10:27:53.250Z,100414.34
2023-01-12T10:30:40.935Z,100416.78
2023-01-12T10:33:19.274Z,100414.53
2023-01-12T10:36:08.638Z,100406.41
2023-01-12T10:38:57.803Z,100409.09
2023-01-12T10:41:26.577Z,100402.16
2023-01-12T10:44:00.369Z,100411.63
2023-01-12T10:46:31.782Z,100407.97
2023-01-12T10:49:22.284Z,100415.31
2023-01-12T10:52:02.029Z,100415.97
2023-01-12T10:54:31.649Z,100406.06
2023-01-12T10:57:05.923Z,100393.56
2023-01-12T10:59:38.486Z,100387.59
2023-01-12T11:02:09.342Z,100391.50
2023-01-12T11:04:52.498Z,100390.69
2023-01-12T11:07:26.557Z,100385.66
2023-01-12T11:09:55.506Z,100387.72
2023-01-12T11:12:30.047Z,100391.31
2023-01-12T11:15:17.998Z,100387.94
2023-01-12T11:18:04.820Z,100383.88
2023-01-12T11:21:01.491Z,100379.63
2023-01-12T11:24:02.976Z,100377.91
2023-01-12T11:26:46.243Z,100375.69
2023-01-12T11:29:34.078Z,100364.69
2023-01-12T11:32:27.183Z,100363.19
2023-01-12T11:35:04.927Z,100362.25
2023-01-12T11:37:38.352Z,100361.34
2023-01-12T11:40:28.442Z,100356.78
2023-01-12T11:43:21.994Z,100351.81
2023-01-12T11:45:55.036Z,100351.63
2023-01-12T11:49:08.069Z,100352.53
2023-01-12T11:51:35.961Z,100355.22
2023-01-12T11:54:06.246Z,100365.16
2023-01-12T11:56:52.586Z,100364.41
2023-01-12T11:59:41.858Z,100358.66
2023-01-12T12:02:46.158Z,100358.47
2023-01-12T12:05:52.066Z,100354.72
2023-01-12T12:08:29.203Z,100341.19
2023-01-12T12:11:31.992Z,100341.81
2023-01-12T12:14:29.591Z,100335.53
2023-01-12T12:17:05.543Z,100331.13
2023-01-12T12:19:41.913Z,100329.13
2023-01-12T12:22:41.332Z,100329.50
2023-01-12T12:25:34.317Z,100328.53
2023-01-12T12:28:26.970Z,100319.03
2023-01-12T12:30:57.900Z,100322.88
2023-01-12T12:34:04.559Z,100318.97
2023-01-12T12:36:50.259Z,100311.56
2023-01-12T12:39:56.497Z,100319.28
2023-01-12T12:43:02.916Z,100308.84
2023-01-12T12:45:44.264Z,100313.47
2023-01-12T12:48:29.607Z,100308.09
2023-01-12T12:51:10.072Z,100308.97
2023-01-12T12:53:41.769Z,100304.88
2023-01-12T12:56:14.399Z,100313.03
2023-01-12T12:58:46.348Z,100317.81
2023-01-12T13:01:23.479Z,100318.59
2023-01-12T13:04:05.103Z,100318.91
2023-01-12T13:07:03.042Z,100316.22
2023-01-12T13:09:30.880Z,100317.84
2023-01-12T13:11:59.223Z,100316.94
2023-01-12T13:14:34.604Z,100312.44
2023-01-12T13:17:21.122Z,100309.88
2023-01-12T13:19:51.903Z,100310.03
2023-01-12T13:22:42.308Z,100308.88
2023-01-12T13:25:26.500Z,100302.72
2023-01-12T13:28:01.166Z,100291.38
2023-01-12T13:30:29.606Z,100281.97
2023-01-12T13:33:15.713Z,100291.53
2023-01-12T13:35:44.573Z,100287.38
2023-01-12T13:38:43.825Z,100280.00
2023-01-12T13:41:14.979Z,100283.59
2023-01-12T13:43:48.884Z,100282.34
2023-01-12T13:46:26.183Z,100277.31
2023-01-12T13:48:56.502Z,100280.25
2023-01-12T13:51:34.215Z,100273.09
2023-01-12T13:54:12.646Z,100268.19
2023-01-12T13:56:41.443Z,100258.59
2023-01-12T13:59:17.996Z,100262.16
2023-01-12T14:01:48.492Z,100260.47
2023-01-12T14:04:21.483Z,100261.50
2023-01-12T14:07:07.922Z,100270.03
2023-01-12T14:09:55.361Z,100272.00
2023-01-12T14:12:59.201Z,100272.06
2023-01-12T14:16:02.545Z,100260.06
2023-01-12T14:18:43.214Z,100253.22
2023-01-12T14:21:32.941Z,100255.00
2023-01-12T14:24:30.195Z,100257.19
2023-01-12T14:26:58.194Z,100252.16
2023-01-12T14:29:26.000Z,100247.88
2023-01-12T14:31:54.890Z,100250.38
2023-01-12T14:34:34.769Z,100251.34
2023-01-12T14:37:07.819Z,100252.47
2023-01-12T14:39:41.213Z,100253.41
2023-01-12T14:42:53.021Z,100242.34
2023-01-12T14:45:46.454Z,100237.53
2023-01-12T14:48:29.304Z,100239.28
2023-01-12T14:51:28.538Z,100233.97
2023-01-12T14:53:59.848Z,100232.53
2023-01-12T14:56:33.907Z,100239.47
2023-01-12T14:59:20.640Z,100237.16
2023-01-12T15:01:48.755Z,100235.72
2023-01-12T15:04:23.797Z,100234.94
2023-01-12T15:07:21.455Z,100236.22
2023-01-12T15:10:08.788Z,100229.53
2023-01-12T15:12:44.657Z,100227.22
2023-01-12T15:15:18.175Z,100223.00
2023-01-12T15:18:05.620Z,100235.28
2023-01-12T15:21:03.870Z,100218.06
2023-01-12T15:23:55.435Z,100218.41
2023-01-12T15:26:23.586Z,100218.50
2023-01-12T15:28:51.535Z,100224.72
2023-01-12T15:31:37.502Z,100222.06
2023-01-12T15:34:06.404Z,100218.69
2023-01-12T15:36:34.364Z,100222.31
2023-01-12T15:39:02.003Z,100225.59
2023-01-12T15:41:50.468Z,100232.63
2023-01-12T15:44:20.319Z,100231.97
2023-01-12T15:46:48.702Z,100235.47
2023-01-12T15:49:16.604Z,100230.09
2023-01-12T15:51:47.558Z,100234.16
2023-01-12T15:54:18.095Z,100231.88
2023-01-12T15:56:46.615Z,100248.47
2023-01-12T15:59:14.701Z,100246.84
2023-01-12T16:01:45.903Z,100247.66
2023-01-12T16:04:41.404Z,100251.91
2023-01-12T16:07:05.413Z,100244.16
2023-01-12T16:09:33.132Z,100247.63
2023-01-12T16:12:01.043Z,100251.97
2023-01-12T16:14:29.042Z,100252.88
2023-01-12T16:16:57.019Z,100240.69
2023-01-12T16:19:25.008Z,100241.66
2023-01-12T16:21:55.096Z,100242.50
2023-01-12T16:24:26.585Z,100237.25
2023-01-12T16:26:54.903Z,100237.19
2023-01-12T16:29:23.946Z,100244.97
2023-01-12T16:31:52.653Z,100225.91
2023-01-12T16:34:23.486Z,100232.94
2023-01-12T16:36:51.660Z,100241.53
2023-01-12T16:39:19.452Z,100243.44
2023-01-12T16:41:48.147Z,100234.88
2023-01-12T16:44:15.865Z,100234.06
2023-01-12T16:46:43.863Z,100238.41
2023-01-12T16:49:11.477Z,100235.00
2023-01-12T16:51:39.635Z,100235.88
2023-01-12T16:54:07.379Z,100228.09
2023-01-12T16:56:35.312Z,100231.63
2023-01-12T16:59:03.113Z,100235.09
2023-01-12T17:01:31.305Z,100233.41
2023-01-12T17:04:00.464Z,100225.03
2023-01-12T17:06:29.685Z,100231.00
2023-01-12T17:09:01.139Z,100218.03
2023-01-12T17:11:30.994Z,100230.31
2023-01-12T17:13:59.266Z,100235.53
2023-01-12T17:16:29.458Z,100229.47
2023-01-12T17:18:57.266Z,100228.50
2023-01-12T17:21:25.427Z,100221.69
2023-01-12T17:23:53.297Z,100216.53
2023-01-12T17:26:21.209Z,100223.44
2023-01-12T17:28:48.959Z,100216.44
2023-01-12T17:31:18.692Z,100214.69
2023-01-12T17:33:46.791Z,100213.97
2023-01-12T17:36:14.807Z,100203.88
2023-01-12T17:38:42.569Z,100206.13
2023-01-12T17:41:34.941Z,100199.22
2023-01-12T17:44:04.795Z,100198.09
2023-01-12T17:46:33.513Z,100197.34
2023-01-12T17:49:04.020Z,100199.03
2023-01-12T17:51:32.582Z,100188.56
2023-01-12T17:54:01.997Z,100190.06
2023-01-12T17:56:32.896Z,100198.69
2023-01-12T17:59:02.015Z,100187.44
2023-01-12T18:01:32.837Z,100179.69
2023-01-12T18:04:01.303Z,100183.22
2023-01-12T18:06:29.821Z,100181.34
2023-01-12T18:08:59.752Z,100183.94
2023-01-12T18:11:28.774Z,100191.88
2023-01-12T18:13:56.892Z,100192.84
2023-01-12T18:16:25.383Z,100187.69
2023-01-12T18:18:54.486Z,100193.78
2023-01-12T18:21:25.135Z,100187.44
2023-01-12T18:23:53.761Z,100180.78
2023-01-12T18:26:25.385Z,100180.06
2023-01-12T18:28:54.977Z,100172.34
2023-01-12T18:31:26.416Z,100169.66
2023-01-12T18:34:06.108Z,100168.00
2023-01-12T18:36:39.412Z,100162.75
2023-01-12T18:39:11.015Z,100162.78
2023-01-12T18:41:57.641Z,100157.66
2023-01-12T18:44:26.336Z,100154.28
2023-01-12T18:47:15.709Z,100146.88
2023-01-12T18:49:49.000Z,100153.16
2023-01-12T18:52:36.838Z,100147.78
2023-01-12T18:55:05.715Z,100141.81
2023-01-12T18:57:33.999Z,100136.75
2023-01-12T19:00:16.848Z,100130.72
2023-01-12T19:02:45.421Z,100135.66
2023-01-12T19:05:14.887Z,100135.47
2023-01-12T19:07:58.249Z,100128.00
2023-01-12T19:10:27.543Z,100135.13
2023-01-12T19:13:14.436Z,100139.28
2023-01-12T19:16:01.269Z,100132.47
2023-01-12T19:18:29.429Z,100134.06
2023-01-12T19:21:23.217Z,100134.31
2023-01-12T19:24:09.744Z,100132.44
2023-01-12T19:26:56.079Z,100128.19
2023-01-12T19:29:24.107Z,100129.97
2023-01-12T19:31:52.013Z,100121.28
2023-01-12T19:34:19.943Z,100135.03
2023-01-12T19:36:47.689Z,100128.09
2023-01-12T19:39:21.459Z,100126.28
2023-01-12T19:42:07.705Z,100133.28
2023-01-12T19:44:36.687Z,100129.16
2023-01-12T19:47:04.299Z,100126.47
2023-01-12T19:49:32.204Z,100127.44
2023-01-12T19:51:59.977Z,100127.69
2023-01-12T19:54:29.094Z,100116.28
2023-01-12T19:56:56.704Z,100118.88
2023-01-12T19:59:24.732Z,100111.94
2023-01-12T20:01:54.000Z,100120.59
2023-01-12T20:04:22.028Z,100117.94
2023-01-12T20:06:53.159Z,100117.72
2023-01-12T20:09:21.168Z,100126.38
2023-01-12T20:11:54.397Z,100122.81
2023-01-12T20:14:22.547Z,100124.63
2023-01-12T20:16:50.405Z,100120.78
2023-01-12T20:19:19.510Z,100121.78
2023-01-12T20:21:48.500Z,100119.19
2023-01-12T20:24:17.008Z,100120.78
2023-01-12T20:26:44.766Z,100119.03
2023-01-12T20:29:12.745Z,100115.50
2023-01-12T20:31:40.618Z,100117.06
2023-01-12T20:34:08.681Z,100125.88
2023-01-12T20:36:38.707Z,100121.66
2023-01-12T20:39:11.068Z,100120.59
2023-01-12T20:41:40.046Z,100111.44
2023-01-12T20:44:12.183Z,100116.72
2023-01-12T20:46:39.869Z,100109.19
2023-01-12T20:49:07.812Z,100097.03
2023-01-12T20:51:35.515Z,100113.28
2023-01-12T20:54:05.494Z,100107.09
2023-01-12T20:56:33.390Z,100110.31
2023-01-12T20:59:01.429Z,100105.13
2023-01-12T21:01:29.534Z,100100.84
2023-01-12T21:03:57.504Z,100107.78
2023-01-12T21:06:25.213Z,100101.66
2023-01-12T21:08:53.236Z,100109.25
2023-01-12T21:11:21.438Z,100108.94
2023-01-12T21:13:49.522Z,100108.31
2023-01-12T21:16:19.030Z,100108.41
2023-01-12T21:18:47.202Z,100099.72
2023-01-12T21:21:15.206Z,100110.06
2023-01-12T21:23:43.259Z,100104.81
2023-01-12T21:26:11.233Z,100091.66
2023-01-12T21:28:40.441Z,100107.22
2023-01-12T21:31:11.857Z,100105.66
2023-01-12T21:33:40.009Z,100101.41
2023-01-12T21:36:08.115Z,100096.19
2023-01-12T21:38:36.125Z,100097.97
2023-01-12T21:41:05.665Z,100091.84
2023-01-12T21:43:34.363Z,100089.31
2023-01-12T21:46:07.241Z,100095.50
2023-01-12T21:48:35.582Z,100085.06
2023-01-12T21:51:05.229Z,100088.41
2023-01-12T21:53:33.497Z,100081.53
2023-01-12T21:56:03.066Z,100085.78
2023-01-12T21:58:33.048Z,100089.25
2023-01-12T22:01:06.418Z,100091.22
2023-01-12T22:03:34.463Z,100083.97
2023-01-12T22:06:06.215Z,100081.53
2023-01-12T22:08:38.220Z,100082.19
2023-01-12T22:11:12.249Z,100084.09
2023-01-12T22:13:40.911Z,100083.22
2023-01-12T22:16:14.555Z,100087.63
2023-01-12T22:18:47.069Z,100080.69
2023-01-12T22:21:16.421Z,100071.97
2023-01-12T22:23:44.619Z,100067.31
2023-01-12T22:26:14.623Z,100068.13
2023-01-12T22:28:44.294Z,100059.59
2023-01-12T22:31:14.557Z,100061.38
2023-01-12T22:33:48.153Z,100059.88
2023-01-12T22:36:16.146Z,100053.72
2023-01-12T22:38:44.115Z,100049.44
2023-01-12T22:41:13.204Z,100052.91
2023-01-12T22:43:41.583Z,100049.75
2023-01-12T22:46:17.525Z,100041.13
2023-01-12T22:48:49.808Z,100047.97
2023-01-12T22:51:20.311Z,100047.88
2023-01-12T22:53:48.791Z,100047.00
2023-01-12T22:56:17.110Z,100052.91
2023-01-12T22:58:53.319Z,100044.09
2023-01-12T23:01:22.413Z,100040.84
2023-01-12T23:03:54.625Z,100040.91
2023-01-12T23:06:23.563Z,100032.19
2023-01-12T23:08:52.030Z,100030.66
2023-01-12T23:11:22.958Z,100034.00
2023-01-12T23:13:51.454Z,100034.06
2023-01-12T23:16:20.340Z,100037.66
2023-01-12T23:18:50.053Z,100044.44
2023-01-12T23:21:20.191Z,100044.34
2023-01-12T23:23:51.118Z,100029.03
2023-01-12T23:26:22.745Z,100043.66
2023-01-12T23:28:53.514Z,100042.53
2023-01-12T23:31:23.633Z,100037.53
2023-01-12T23:33:52.300Z,100028.97
2023-01-12T23:36:23.133Z,100039.25
2023-01-12T23:38:55.767Z,100037.50
2023-01-12T23:41:25.576Z,100044.50
2023-01-12T23:43:56.391Z,100039.16
2023-01-12T23:46:24.502Z,100042.69
2023-01-12T23:48:55.185Z,100048.75
2023-01-12T23:51:24.663Z,100034.84
2023-01-12T23:54:00.005Z,100041.72
2023-01-12T23:56:30.629Z,100042.69
2023-01-12T23:58:58.977Z,100042.63
